createdAt,value
2022-12-12T00:01:22.954Z,29.00
2022-12-12T00:03:51.408Z,27.20
2022-12-12T00:06:19.717Z,28.70
2022-12-12T00:08:47.759Z,28.17
2022-12-12T00:11:15.991Z,29.53
2022-12-12T00:13:44.052Z,27.60
2022-12-12T00:16:13.948Z,28.97
2022-12-12T00:18:42.634Z,27.50
2022-12-12T00:21:16.131Z,26.60
2022-12-12T00:23:44.651Z,28.57
2022-12-12T00:26:17.215Z,28.23
2022-12-12T00:28:45.284Z,28.20
2022-12-12T00:31:15.231Z,26.90
2022-12-12T00:33:44.922Z,29.13
2022-12-12T00:36:13.196Z,27.70
2022-12-12T00:38:41.157Z,27.30
2022-12-12T00:41:09.449Z,28.37
2022-12-12T00:43:37.415Z,29.07
2022-12-12T00:46:05.827Z,27.70
2022-12-12T00:48:36.366Z,28.67
2022-12-12T00:51:09.435Z,29.40
2022-12-12T00:53:37.816Z,30.03
2022-12-12T00:56:06.586Z,30.40
2022-12-12T00:58:34.880Z,30.03
2022-12-12T01:01:08.807Z,30.40
2022-12-12T01:03:40.746Z,29.63
2022-12-12T01:06:09.244Z,30.13
2022-12-12T01:08:37.911Z,29.50
2022-12-12T01:11:06.611Z,30.47
2022-12-12T01:13:35.358Z,29.47
2022-12-12T01:16:03.599Z,29.83
2022-12-12T01:18:31.675Z,30.13
2022-12-12T01:21:01.344Z,31.37
2022-12-12T01:23:29.566Z,30.97
2022-12-12T01:26:01.873Z,29.33
2022-12-12T01:28:29.881Z,31.83
2022-12-12T01:30:57.966Z,32.50
2022-12-12T01:33:26.044Z,32.73
2022-12-12T01:35:54.078Z,32.77
2022-12-12T01:38:24.663Z,34.27
2022-12-12T01:40:53.175Z,34.27
2022-12-12T01:43:24.187Z,33.17
2022-12-12T01:46:37.968Z,34.93
2022-12-12T01:49:14.287Z,36.33
2022-12-12T01:51:44.017Z,37.20
2022-12-12T01:54:26.543Z,36.33
2022-12-12T01:56:55.780Z,38.30
2022-12-12T01:59:26.836Z,36.80
2022-12-12T02:01:56.819Z,39.80
2022-12-12T02:04:25.968Z,37.60
2022-12-12T02:06:55.466Z,38.23
2022-12-12T02:09:26.839Z,36.57
2022-12-12T02:11:57.204Z,33.27
2022-12-12T02:14:28.620Z,32.43
2022-12-12T02:17:27.340Z,29.60
2022-12-12T02:20:28.691Z,29.07
2022-12-12T02:23:27.893Z,28.87
2022-12-12T02:26:37.368Z,27.47
2022-12-12T02:29:35.470Z,29.90
2022-12-12T02:32:09.717Z,30.67
2022-12-12T02:34:47.968Z,29.20
2022-12-12T02:37:22.174Z,29.83
2022-12-12T02:39:59.633Z,30.43
2022-12-12T02:42:33.122Z,28.93
2022-12-12T02:45:08.117Z,31.63
2022-12-12T02:47:42.597Z,31.57
2022-12-12T02:50:14.713Z,31.53
2022-12-12T02:52:44.417Z,31.40
2022-12-12T02:55:12.842Z,32.63
2022-12-12T02:57:42.144Z,32.73
2022-12-12T03:00:12.417Z,33.33
2022-12-12T03:03:19.528Z,31.93
2022-12-12T03:06:26.047Z,32.63
2022-12-12T03:09:05.858Z,33.13
2022-12-12T03:11:46.099Z,34.23
2022-12-12T03:14:22.529Z,33.13
2022-12-12T03:17:01.121Z,33.53
2022-12-12T03:19:35.441Z,32.87
2022-12-12T03:22:10.961Z,30.43
2022-12-12T03:24:49.595Z,30.70
2022-12-12T03:27:24.395Z,31.77
2022-12-12T03:29:56.616Z,31.33
2022-12-12T03:32:28.772Z,29.17
2022-12-12T03:35:04.499Z,29.70
2022-12-12T03:37:34.971Z,30.10
2022-12-12T03:40:07.013Z,28.70
2022-12-12T03:42:41.908Z,28.97
2022-12-12T03:45:16.300Z,31.57
2022-12-12T03:47:50.739Z,30.10
2022-12-12T03:50:22.086Z,30.53
2022-12-12T03:52:55.875Z,32.20
2022-12-12T03:55:28.836Z,29.00
2022-12-12T03:58:01.334Z,32.20
2022-12-12T04:00:31.905Z,31.10
2022-12-12T04:03:06.860Z,31.70
2022-12-12T04:06:03.046Z,30.47
2022-12-12T04:08:31.790Z,29.77
2022-12-12T04:11:24.812Z,29.90
2022-12-12T04:14:05.324Z,29.93
2022-12-12T04:16:37.888Z,29.37
2022-12-12T04:19:13.943Z,30.73
2022-12-12T04:22:08.450Z,30.00
2022-12-12T04:24:42.109Z,31.97
2022-12-12T04:27:16.075Z,34.27
2022-12-12T04:29:50.373Z,33.10
2022-12-12T04:32:23.935Z,33.63
2022-12-12T04:34:55.551Z,34.70
2022-12-12T04:37:28.791Z,32.10
2022-12-12T04:40:00.899Z,31.57
2022-12-12T04:42:32.894Z,33.13
2022-12-12T04:45:06.367Z,32.77
2022-12-12T04:47:37.547Z,32.27
2022-12-12T04:50:08.068Z,32.70
2022-12-12T04:52:39.734Z,32.20
2022-12-12T04:55:14.649Z,34.07
2022-12-12T04:57:45.760Z,31.20
2022-12-12T05:00:15.323Z,33.03
2022-12-12T05:02:50.716Z,33.50
2022-12-12T05:05:22.502Z,33.03
2022-12-12T05:07:56.161Z,34.97
2022-12-12T05:10:25.197Z,34.80
2022-12-12T05:12:59.938Z,33.30
2022-12-12T05:15:29.065Z,34.33
2022-12-12T05:18:01.011Z,31.80
2022-12-12T05:20:29.167Z,34.13
2022-12-12T05:22:58.571Z,32.03
2022-12-12T05:25:26.935Z,31.27
2022-12-12T05:27:54.932Z,32.73
2022-12-12T05:30:23.183Z,31.77
2022-12-12T05:32:51.598Z,32.50
2022-12-12T05:35:20.204Z,32.23
2022-12-12T05:37:51.728Z,32.40
2022-12-12T05:40:23.248Z,32.13
2022-12-12T05:42:51.525Z,32.90
2022-12-12T05:45:19.739Z,33.00
2022-12-12T05:47:47.769Z,34.87
2022-12-12T05:50:15.733Z,32.07
2022-12-12T05:52:43.674Z,31.63
2022-12-12T05:55:12.628Z,32.30
2022-12-12T05:57:42.111Z,33.93
2022-12-12T06:00:11.276Z,33.33
2022-12-12T06:02:39.457Z,33.70
2022-12-12T06:05:07.960Z,36.17
2022-12-12T06:07:36.000Z,35.07
2022-12-12T06:10:04.042Z,35.70
2022-12-12T06:12:32.002Z,36.53
2022-12-12T06:15:01.301Z,37.40
2022-12-12T06:17:33.088Z,38.30
2022-12-12T06:20:01.625Z,39.03
2022-12-12T06:22:29.595Z,39.13
2022-12-12T06:24:57.544Z,37.87
2022-12-12T06:27:25.547Z,36.70
2022-12-12T06:29:53.486Z,36.57
2022-12-12T06:32:22.806Z,38.47
2022-12-12T06:34:50.818Z,37.73
2022-12-12T06:37:19.006Z,38.03
2022-12-12T06:39:47.797Z,36.63
2022-12-12T06:42:15.753Z,39.40
2022-12-12T06:44:43.885Z,40.97
2022-12-12T06:47:11.903Z,40.23
2022-12-12T06:49:41.360Z,40.20
2022-12-12T06:52:09.346Z,41.13
2022-12-12T06:54:37.665Z,52.43
2022-12-12T06:57:05.759Z,45.30
2022-12-12T06:59:33.729Z,45.60
2022-12-12T07:02:02.191Z,40.80
2022-12-12T07:04:30.227Z,41.60
2022-12-12T07:06:59.682Z,40.67
2022-12-12T07:09:28.369Z,43.50
2022-12-12T07:11:56.409Z,42.57
2022-12-12T07:14:24.394Z,41.47
2022-12-12T07:16:52.369Z,41.17
2022-12-12T07:19:20.356Z,39.90
2022-12-12T07:21:48.354Z,42.73
2022-12-12T07:24:17.733Z,42.40
2022-12-12T07:26:45.672Z,40.87
2022-12-12T07:29:13.672Z,39.80
2022-12-12T07:31:41.686Z,38.63
2022-12-12T07:34:09.791Z,41.67
2022-12-12T07:36:37.790Z,40.50
2022-12-12T07:39:05.879Z,40.93
2022-12-12T07:41:35.218Z,40.70
2022-12-12T07:44:03.266Z,39.67
2022-12-12T07:46:31.271Z,39.63
2022-12-12T07:48:59.482Z,39.87
2022-12-12T07:51:27.630Z,39.67
2022-12-12T07:53:55.694Z,38.90
2022-12-12T07:56:23.767Z,42.17
2022-12-12T07:58:55.561Z,41.47
2022-12-12T08:01:25.721Z,40.97
2022-12-12T08:03:54.837Z,43.37
2022-12-12T08:06:24.432Z,43.90
2022-12-12T08:08:53.768Z,41.67
2022-12-12T08:11:23.682Z,42.47
2022-12-12T08:13:53.780Z,42.60
2022-12-12T08:16:23.744Z,40.07
2022-12-12T08:18:54.178Z,41.53
2022-12-12T08:21:26.210Z,40.27
2022-12-12T08:23:57.721Z,37.27
2022-12-12T08:26:26.081Z,39.97
2022-12-12T08:28:56.060Z,41.17
2022-12-12T08:31:24.780Z,39.97
2022-12-12T08:33:53.403Z,36.53
2022-12-12T08:36:23.524Z,38.60
2022-12-12T08:38:52.470Z,36.93
2022-12-12T08:41:20.873Z,36.27
2022-12-12T08:43:49.717Z,36.27
2022-12-12T08:46:20.747Z,35.20
2022-12-12T08:48:49.611Z,36.47
2022-12-12T08:51:18.926Z,35.93
2022-12-12T08:53:48.128Z,34.30
2022-12-12T08:56:16.944Z,33.03
2022-12-12T08:58:46.547Z,36.70
2022-12-12T09:01:16.497Z,37.40
2022-12-12T09:03:46.327Z,35.93
2022-12-12T09:06:15.208Z,37.20
2022-12-12T09:08:44.146Z,35.50
2022-12-12T09:11:12.891Z,36.30
2022-12-12T09:13:41.687Z,36.03
2022-12-12T09:16:10.556Z,36.60
2022-12-12T09:18:44.573Z,35.17
2022-12-12T09:21:17.630Z,34.97
2022-12-12T09:23:46.171Z,36.23
2022-12-12T09:26:14.357Z,37.07
2022-12-12T09:28:42.569Z,38.17
2022-12-12T09:31:12.948Z,39.00
2022-12-12T09:33:42.889Z,38.03
2022-12-12T09:36:13.154Z,39.63
2022-12-12T09:38:42.863Z,41.43
2022-12-12T09:41:17.633Z,39.07
2022-12-12T09:43:51.512Z,40.67
2022-12-12T09:46:29.112Z,38.43
2022-12-12T09:49:03.737Z,39.90
2022-12-12T09:51:31.887Z,41.60
2022-12-12T09:54:01.589Z,42.73
2022-12-12T09:56:37.123Z,41.77
2022-12-12T09:59:10.044Z,42.00
2022-12-12T10:01:44.337Z,41.83
2022-12-12T10:04:21.347Z,43.40
2022-12-12T10:06:56.507Z,44.17
2022-12-12T10:09:39.991Z,43.23
2022-12-12T10:12:12.390Z,44.43
2022-12-12T10:14:44.763Z,45.03
2022-12-12T10:17:17.935Z,43.47
2022-12-12T10:19:50.225Z,45.87
2022-12-12T10:22:27.511Z,44.87
2022-12-12T10:25:03.751Z,44.93
2022-12-12T10:27:31.929Z,44.20
2022-12-12T10:30:08.243Z,41.53
2022-12-12T10:32:45.917Z,42.40
2022-12-12T10:35:26.411Z,41.47
2022-12-12T10:38:10.552Z,41.90
2022-12-12T10:40:52.984Z,41.50
2022-12-12T10:43:24.505Z,41.50
2022-12-12T10:46:16.941Z,39.33
2022-12-12T10:48:47.009Z,39.67
2022-12-12T10:51:18.603Z,42.40
2022-12-12T10:53:46.889Z,42.13
2022-12-12T10:56:21.703Z,40.40
2022-12-12T10:58:55.155Z,37.97
2022-12-12T11:01:52.244Z,37.53
2022-12-12T11:04:16.279Z,40.80
2022-12-12T11:06:47.955Z,42.17
2022-12-12T11:09:20.402Z,39.13
2022-12-12T11:12:01.181Z,46.20
2022-12-12T11:14:33.043Z,41.83
2022-12-12T11:17:01.110Z,40.23
2022-12-12T11:19:37.284Z,40.07
2022-12-12T11:22:05.709Z,38.23
2022-12-12T11:24:35.744Z,38.10
2022-12-12T11:27:07.752Z,37.80
2022-12-12T11:29:42.757Z,37.50
2022-12-12T11:32:15.530Z,38.83
2022-12-12T11:34:47.902Z,39.53
2022-12-12T11:37:18.136Z,35.67
2022-12-12T11:39:49.998Z,37.43
2022-12-12T11:42:26.603Z,36.67
2022-12-12T11:45:03.003Z,39.53
2022-12-12T11:47:38.447Z,40.03
2022-12-12T11:50:19.757Z,40.93
2022-12-12T11:52:49.226Z,41.23
2022-12-12T11:55:19.454Z,39.37
2022-12-12T11:58:08.998Z,37.30
2022-12-12T12:00:44.390Z,40.17
2022-12-12T12:03:37.833Z,39.00
2022-12-12T12:06:30.874Z,40.90
2022-12-12T12:09:29.649Z,37.53
2022-12-12T12:12:07.427Z,37.90
2022-12-12T12:15:00.157Z,36.90
2022-12-12T12:17:43.544Z,37.77
2022-12-12T12:20:22.741Z,38.47
2022-12-12T12:23:03.679Z,38.70
2022-12-12T12:25:38.442Z,37.93
2022-12-12T12:28:45.116Z,39.73
2022-12-12T12:31:23.880Z,41.97
2022-12-12T12:34:03.993Z,45.10
2022-12-12T12:36:41.789Z,42.03
2022-12-12T12:39:20.665Z,38.30
2022-12-12T12:42:10.020Z,37.80
2022-12-12T12:44:48.100Z,39.77
2022-12-12T12:47:28.049Z,42.77
2022-12-12T12:49:59.909Z,38.63
2022-12-12T12:52:33.483Z,41.67
2022-12-12T12:55:02.722Z,40.63
2022-12-12T12:57:35.302Z,37.20
2022-12-12T13:00:09.985Z,38.27
2022-12-12T13:02:49.783Z,37.57
2022-12-12T13:05:24.132Z,43.30
2022-12-12T13:07:58.838Z,42.57
2022-12-12T13:10:29.506Z,39.80
2022-12-12T13:13:02.401Z,40.90
2022-12-12T13:15:34.528Z,40.90
2022-12-12T13:18:06.251Z,41.77
2022-12-12T13:20:39.095Z,41.93
2022-12-12T13:23:20.950Z,39.67
2022-12-12T13:25:55.557Z,41.90
2022-12-12T13:28:30.107Z,42.20
2022-12-12T13:31:22.654Z,41.90
2022-12-12T13:33:56.548Z,41.33
2022-12-12T13:36:29.893Z,40.07
2022-12-12T13:39:01.109Z,39.23
2022-12-12T13:41:49.237Z,39.53
2022-12-12T13:44:34.597Z,36.50
2022-12-12T13:47:03.291Z,41.20
2022-12-12T13:49:46.316Z,39.53
2022-12-12T13:52:26.983Z,39.37
2022-12-12T13:55:18.107Z,38.77
2022-12-12T13:58:08.247Z,40.03
2022-12-12T14:00:36.707Z,38.93
2022-12-12T14:03:25.267Z,43.77
2022-12-12T14:05:55.826Z,42.37
2022-12-12T14:08:28.330Z,38.13
2022-12-12T14:11:00.692Z,40.83
2022-12-12T14:13:42.918Z,38.40
2022-12-12T14:16:22.259Z,37.47
2022-12-12T14:19:08.917Z,36.30
2022-12-12T14:21:47.679Z,39.13
2022-12-12T14:24:48.068Z,39.97
2022-12-12T14:27:16.474Z,41.47
2022-12-12T14:29:45.573Z,38.37
2022-12-12T14:32:33.073Z,37.10
2022-12-12T14:35:25.962Z,38.67
2022-12-12T14:38:05.049Z,38.20
2022-12-12T14:40:35.463Z,38.27
2022-12-12T14:43:19.174Z,34.27
2022-12-12T14:45:56.457Z,32.03
2022-12-12T14:48:27.353Z,35.43
2022-12-12T14:51:01.218Z,34.33
2022-12-12T14:53:33.527Z,33.03
2022-12-12T14:56:04.823Z,34.23
2022-12-12T14:58:37.895Z,35.77
2022-12-12T15:01:07.223Z,34.87
2022-12-12T15:03:39.023Z,36.17
2022-12-12T15:06:32.463Z,34.00
2022-12-12T15:09:12.332Z,33.43
2022-12-12T15:11:40.782Z,34.93
2022-12-12T15:14:20.066Z,37.33
2022-12-12T15:16:52.068Z,36.87
2022-12-12T15:19:24.285Z,37.23
2022-12-12T15:21:52.456Z,36.67
2022-12-12T15:24:24.245Z,35.87
2022-12-12T15:26:55.057Z,34.00
2022-12-12T15:29:26.117Z,38.00
2022-12-12T15:32:00.058Z,39.27
2022-12-12T15:34:34.263Z,43.03
2022-12-12T15:37:30.463Z,38.00
2022-12-12T15:40:17.761Z,39.60
2022-12-12T15:42:48.960Z,36.50
2022-12-12T15:45:21.320Z,39.13
2022-12-12T15:47:51.607Z,37.67
2022-12-12T15:50:21.609Z,38.30
2022-12-12T15:53:03.221Z,42.37
2022-12-12T15:55:33.687Z,37.47
2022-12-12T15:58:01.817Z,38.53
2022-12-12T16:00:36.246Z,38.07
2022-12-12T16:03:07.680Z,40.03
2022-12-12T16:05:38.179Z,38.73
2022-12-12T16:08:31.696Z,39.93
2022-12-12T16:11:03.549Z,43.10
2022-12-12T16:13:39.746Z,38.80
2022-12-12T16:16:34.482Z,37.53
2022-12-12T16:19:03.233Z,36.17
2022-12-12T16:21:32.116Z,38.43
2022-12-12T16:24:12.642Z,35.07
2022-12-12T16:26:41.940Z,35.30
2022-12-12T16:29:09.969Z,34.80
2022-12-12T16:31:38.051Z,33.23
2022-12-12T16:34:06.299Z,32.53
2022-12-12T16:36:41.422Z,32.80
2022-12-12T16:39:10.777Z,31.63
2022-12-12T16:41:38.849Z,33.67
2022-12-12T16:44:08.586Z,35.50
2022-12-12T16:46:36.540Z,33.50
2022-12-12T16:49:05.122Z,32.13
2022-12-12T16:51:35.327Z,34.63
2022-12-12T16:54:03.307Z,33.10
2022-12-12T16:56:31.298Z,31.13
2022-12-12T16:58:59.240Z,33.60
2022-12-12T17:01:28.615Z,32.33
2022-12-12T17:03:57.135Z,33.00
2022-12-12T17:06:25.127Z,33.17
2022-12-12T17:08:53.166Z,35.83
2022-12-12T17:11:21.138Z,36.30
2022-12-12T17:13:50.970Z,32.60
2022-12-12T17:16:24.171Z,34.97
2022-12-12T17:18:58.418Z,30.80
2022-12-12T17:21:26.568Z,31.17
2022-12-12T17:23:54.554Z,32.80
2022-12-12T17:26:23.221Z,33.30
2022-12-12T17:28:51.203Z,29.33
2022-12-12T17:31:19.210Z,28.73
2022-12-12T17:33:51.067Z,30.97
2022-12-12T17:36:20.891Z,26.90
2022-12-12T17:38:49.438Z,27.60
2022-12-12T17:41:17.426Z,25.07
2022-12-12T17:43:48.256Z,26.67
2022-12-12T17:46:19.228Z,26.60
2022-12-12T17:48:48.762Z,26.17
2022-12-12T17:51:21.957Z,29.27
2022-12-12T17:53:51.178Z,26.47
2022-12-12T17:56:20.812Z,28.77
2022-12-12T17:58:50.205Z,29.13
2022-12-12T18:01:20.711Z,26.50
2022-12-12T18:03:49.904Z,24.83
2022-12-12T18:06:20.345Z,23.83
2022-12-12T18:08:49.029Z,25.63
2022-12-12T18:11:19.082Z,26.50
2022-12-12T18:13:48.806Z,24.80
2022-12-12T18:16:18.699Z,25.93
2022-12-12T18:18:46.760Z,25.70
2022-12-12T18:21:43.289Z,25.67
2022-12-12T18:24:09.832Z,25.57
2022-12-12T18:26:37.893Z,25.37
2022-12-12T18:29:07.778Z,27.03
2022-12-12T18:31:36.442Z,25.67
2022-12-12T18:34:04.875Z,27.27
2022-12-12T18:36:33.580Z,26.00
2022-12-12T18:39:03.290Z,28.67
2022-12-12T18:41:33.361Z,26.83
2022-12-12T18:44:06.026Z,24.80
2022-12-12T18:46:40.315Z,27.03
2022-12-12T18:49:10.885Z,26.60
2022-12-12T18:51:39.027Z,28.33
2022-12-12T18:54:12.760Z,28.07
2022-12-12T18:56:44.494Z,26.43
2022-12-12T18:59:12.616Z,28.33
2022-12-12T19:01:40.660Z,27.60
2022-12-12T19:04:13.382Z,27.33
2022-12-12T19:06:43.142Z,26.37
2022-12-12T19:09:15.219Z,24.90
2022-12-12T19:11:44.962Z,24.53
2022-12-12T19:14:15.028Z,26.60
2022-12-12T19:16:43.264Z,26.00
2022-12-12T19:19:12.346Z,24.97
2022-12-12T19:21:41.112Z,26.80
2022-12-12T19:24:12.117Z,27.07
2022-12-12T19:26:41.740Z,26.10
2022-12-12T19:29:13.338Z,25.23
2022-12-12T19:31:41.547Z,24.00
2022-12-12T19:34:11.767Z,22.23
2022-12-12T19:36:40.733Z,21.53
2022-12-12T19:39:09.470Z,23.00
2022-12-12T19:41:37.934Z,24.13
2022-12-12T19:44:08.819Z,24.33
2022-12-12T19:46:38.207Z,23.40
2022-12-12T19:49:08.555Z,25.90
2022-12-12T19:51:39.245Z,21.77
2022-12-12T19:54:09.050Z,20.87
2022-12-12T19:56:40.664Z,21.60
2022-12-12T19:59:09.522Z,20.47
2022-12-12T20:01:39.365Z,19.70
2022-12-12T20:04:09.232Z,20.87
2022-12-12T20:06:44.644Z,21.60
2022-12-12T20:09:14.003Z,18.60
2022-12-12T20:11:43.293Z,19.77
2022-12-12T20:14:13.372Z,21.03
2022-12-12T20:16:42.703Z,20.43
2022-12-12T20:19:11.490Z,18.77
2022-12-12T20:24:32.259Z,20.27
2022-12-12T20:27:00.685Z,19.37
2022-12-12T20:29:28.875Z,20.40
2022-12-12T20:31:59.841Z,19.90
2022-12-12T20:34:28.745Z,18.87
2022-12-12T20:36:57.274Z,20.00
2022-12-12T20:39:26.127Z,20.93
2022-12-12T20:41:54.643Z,21.43
2022-12-12T20:44:24.111Z,22.07
2022-12-12T20:46:52.378Z,21.90
2022-12-12T20:49:23.973Z,20.63
2022-12-12T20:51:56.978Z,21.87
2022-12-12T20:54:26.216Z,19.60
2022-12-12T20:56:55.263Z,21.23
2022-12-12T20:59:23.747Z,21.00
2022-12-12T21:01:52.473Z,19.63
2022-12-12T21:04:22.154Z,21.70
2022-12-12T21:06:51.431Z,22.03
2022-12-12T21:09:25.529Z,23.00
2022-12-12T21:11:54.497Z,21.70
2022-12-12T21:14:22.516Z,22.23
2022-12-12T21:16:50.509Z,21.70
2022-12-12T21:19:19.737Z,22.33
2022-12-12T21:21:49.064Z,21.73
2022-12-12T21:24:18.370Z,22.70
2022-12-12T21:26:46.961Z,22.10
2022-12-12T21:29:15.420Z,23.20
2022-12-12T21:31:50.888Z,22.60
2022-12-12T21:34:21.397Z,22.50
2022-12-12T21:36:53.669Z,23.77
2022-12-12T21:39:23.180Z,21.57
2022-12-12T21:41:51.459Z,21.47
2022-12-12T21:44:19.855Z,21.03
2022-12-12T21:46:48.093Z,21.93
2022-12-12T21:49:26.471Z,23.70
2022-12-12T21:51:57.672Z,21.77
2022-12-12T21:54:26.594Z,23.07
2022-12-12T21:56:55.028Z,23.87
2022-12-12T21:59:23.563Z,23.63
2022-12-12T22:01:51.685Z,23.20
2022-12-12T22:04:19.790Z,21.83
2022-12-12T22:06:47.785Z,22.73
2022-12-12T22:09:17.154Z,22.27
2022-12-12T22:11:49.551Z,23.97
2022-12-12T22:14:21.364Z,22.33
2022-12-12T22:16:49.636Z,22.40
2022-12-12T22:19:18.388Z,22.73
2022-12-12T22:21:47.456Z,25.63
2022-12-12T22:24:17.786Z,24.40
2022-12-12T22:26:47.243Z,24.77
2022-12-12T22:29:16.730Z,25.20
2022-12-12T22:31:45.873Z,25.30
2022-12-12T22:34:15.675Z,23.80
2022-12-12T22:36:44.874Z,24.20
2022-12-12T22:39:17.697Z,23.43
2022-12-12T22:41:46.201Z,25.87
2022-12-12T22:44:16.691Z,25.33
2022-12-12T22:46:45.828Z,25.27
2022-12-12T22:49:19.347Z,24.97
2022-12-12T22:51:48.537Z,25.10
2022-12-12T22:54:18.088Z,24.47
2022-12-12T22:56:46.534Z,23.83
2022-12-12T22:59:15.364Z,24.60
2022-12-12T23:01:43.895Z,24.43
2022-12-12T23:04:14.017Z,23.77
2022-12-12T23:06:43.318Z,24.80
2022-12-12T23:09:15.320Z,23.50
2022-12-12T23:11:45.379Z,26.70
2022-12-12T23:14:15.317Z,24.10
2022-12-12T23:16:44.017Z,25.33
2022-12-12T23:19:15.117Z,25.80
2022-12-12T23:21:43.210Z,23.13
2022-12-12T23:24:11.544Z,22.90
2022-12-12T23:26:39.772Z,25.13
2022-12-12T23:29:10.669Z,24.27
2022-12-12T23:31:39.999Z,25.17
2022-12-12T23:34:10.595Z,26.37
2022-12-12T23:36:39.016Z,24.20
2022-12-12T23:39:11.739Z,25.53
2022-12-12T23:41:39.859Z,24.63
2022-12-12T23:44:09.821Z,25.13
2022-12-12T23:46:37.792Z,25.67
2022-12-12T23:49:08.234Z,23.17
2022-12-12T23:51:38.238Z,23.87
2022-12-12T23:54:07.760Z,22.80
2022-12-12T23:56:35.956Z,23.73
2022-12-12T23:59:04.110Z,23.97
